Time;durP1;ratioP1;P1;durP2;ratioP2;P2;SDS_P1;SDS_P2;PMS_P1;PMS_P2;Temp;Humidity;BMP_temperature;BMP_pressure;BME280_temperature;BME280_humidity;BME280_pressure;Samples;Min_cycle;Max_cycle;Signal;HPM_P1;HPM_P2
2022/09/09 00:01:55;;;;;;;;;;;;;;;8.32;75.81;100330.06;5083494;28;19950;-60
2022/09/09 00:04:28;;;;;;;;;;;;;;;8.27;76.78;100333.53;5085350;28;19919;-60
2022/09/09 00:06:53;;;;;;;;;;;;;;;8.29;76.06;100341.25;5103842;28;19908;-60
2022/09/09 00:09:20;;;;;;;;;;;;;;;8.37;76.44;100338.69;5084289;28;19923;-60
2022/09/09 00:11:50;;;;;;;;;;;;;;;8.36;76.19;100342.97;5083264;28;19943;-60
2022/09/09 00:14:28;;;;;;;;;;;;;;;8.34;76.26;100343.81;5083302;28;19975;-59
2022/09/09 00:17:00;;;;;;;;;;;;;;;8.37;76.76;100339.53;5083296;28;19916;-60
2022/09/09 00:19:37;;;;;;;;;;;;;;;8.42;76.60;100350.72;5082498;28;19908;-60
2022/09/09 00:22:22;;;;;;;;;;;;;;;8.44;76.20;100336.09;5083373;28;19908;-60
2022/09/09 00:24:55;;;;;;;;;;;;;;;8.48;75.15;100351.59;5083443;28;19915;-59
2022/09/09 00:27:31;;;;;;;;;;;;;;;8.41;76.54;100340.41;5083383;28;19915;-60
2022/09/09 00:30:00;;;;;;;;;;;;;;;8.39;77.04;100345.53;5099296;28;19916;-60
2022/09/09 00:32:28;;;;;;;;;;;;;;;8.41;76.77;100348.16;5092025;28;19943;-60
2022/09/09 00:34:56;;;;;;;;;;;;;;;8.39;77.02;100348.13;5083176;28;19908;-60
2022/09/09 00:37:25;;;;;;;;;;;;;;;8.42;76.40;100345.56;5083263;28;19909;-60
2022/09/09 00:39:54;;;;;;;;;;;;;;;8.50;76.58;100350.72;5083248;28;19930;-60
2022/09/09 00:42:32;;;;;;;;;;;;;;;8.43;77.22;100344.66;5083268;28;19909;-60
2022/09/09 00:45:13;;;;;;;;;;;;;;;8.42;76.49;100355.88;5099343;28;19943;-60
2022/09/09 00:47:47;;;;;;;;;;;;;;;8.38;77.22;100361.91;5089935;28;19940;-60
2022/09/09 00:50:16;;;;;;;;;;;;;;;8.32;77.35;100358.47;5085593;28;19916;-60
2022/09/09 00:52:55;;;;;;;;;;;;;;;8.36;77.47;100362.75;5085482;28;20101;-60
2022/09/09 00:55:28;;;;;;;;;;;;;;;8.32;76.70;100359.31;5086588;28;19912;-60
2022/09/09 00:57:54;;;;;;;;;;;;;;;8.35;76.84;100361.91;5086808;28;19943;-60
2022/09/09 01:00:21;;;;;;;;;;;;;;;8.35;77.16;100356.75;5085278;28;19912;-60
2022/09/09 01:02:56;;;;;;;;;;;;;;;8.39;76.53;100365.34;5066506;28;19919;-60
2022/09/09 01:05:27;;;;;;;;;;;;;;;8.39;77.03;100357.59;5076894;28;19908;-60
2022/09/09 01:07:54;;;;;;;;;;;;;;;8.35;76.44;100367.06;5093197;28;19919;-60
2022/09/09 01:10:38;;;;;;;;;;;;;;;8.42;77.31;100362.75;5104533;28;19957;-60
2022/09/09 01:13:08;;;;;;;;;;;;;;;8.39;75.88;100368.75;5086249;28;20082;-60
2022/09/09 01:15:34;;;;;;;;;;;;;;;8.39;77.19;100373.06;5086406;28;19916;-60
2022/09/09 01:18:04;;;;;;;;;;;;;;;8.39;76.67;100375.66;5086203;28;19944;-60
2022/09/09 01:20:37;;;;;;;;;;;;;;;8.41;76.74;100377.38;5085989;28;19908;-60
2022/09/09 01:23:12;;;;;;;;;;;;;;;8.42;77.00;100380.81;5086191;28;19916;-60
2022/09/09 01:25:43;;;;;;;;;;;;;;;8.46;76.64;100383.44;5086047;28;19951;-61
2022/09/09 01:28:25;;;;;;;;;;;;;;;8.53;76.53;100380.84;5086352;28;20010;-60
2022/09/09 01:30:50;;;;;;;;;;;;;;;8.49;76.02;100382.56;5106363;28;19908;-60
2022/09/09 01:33:16;;;;;;;;;;;;;;;8.52;76.04;100389.44;5088065;28;19950;-60
2022/09/09 01:36:00;;;;;;;;;;;;;;;8.49;76.26;100386.88;5085781;28;20161;-60
2022/09/09 01:38:27;;;;;;;;;;;;;;;8.49;75.36;100385.13;5085767;28;19979;-60
2022/09/09 01:40:53;;;;;;;;;;;;;;;8.45;75.57;100393.75;5084470;28;20136;-60
2022/09/09 01:43:22;;;;;;;;;;;;;;;8.52;75.96;100392.03;5085818;28;19915;-60
2022/09/09 01:45:49;;;;;;;;;;;;;;;8.51;74.85;100391.16;5084652;28;19936;-60
2022/09/09 01:48:15;;;;;;;;;;;;;;;8.51;75.45;100396.34;5085488;28;19912;-60
2022/09/09 01:50:40;;;;;;;;;;;;;;;8.52;75.93;100395.44;5098548;28;19912;-60
2022/09/09 01:53:06;;;;;;;;;;;;;;;8.56;74.78;100393.75;5097516;28;19916;-60
2022/09/09 01:55:34;;;;;;;;;;;;;;;8.56;75.50;100391.16;5084576;28;19908;-60
2022/09/09 01:58:00;;;;;;;;;;;;;;;8.55;76.32;100399.75;5075315;28;20201;-60
2022/09/09 02:00:25;;;;;;;;;;;;;;;8.47;75.84;100402.34;5099618;28;19916;-60
2022/09/09 02:02:57;;;;;;;;;;;;;;;8.51;75.84;100408.38;5068388;28;19962;-60
2022/09/09 02:05:25;;;;;;;;;;;;;;;8.44;76.36;100398.06;5095500;28;20157;-60
2022/09/09 02:07:54;;;;;;;;;;;;;;;8.49;76.05;100410.09;5105375;28;19907;-60
2022/09/09 02:10:21;;;;;;;;;;;;;;;8.52;74.42;100410.09;5103658;28;19916;-59
2022/09/09 02:12:50;;;;;;;;;;;;;;;8.50;75.10;100412.69;5084942;28;19950;-60
2022/09/09 02:15:54;;;;;;;;;;;;;;;8.49;76.03;100415.25;5084996;28;19908;-59
2022/09/09 02:18:30;;;;;;;;;;;;;;;8.50;75.18;100417.00;5044796;28;20226;-60
2022/09/09 02:20:57;;;;;;;;;;;;;;;8.47;76.59;100415.28;5056998;28;20145;-60
2022/09/09 02:23:23;;;;;;;;;;;;;;;8.40;75.68;100413.53;5063158;28;19943;-60
2022/09/09 02:25:51;;;;;;;;;;;;;;;8.38;75.63;100412.66;5063032;28;19948;-60
2022/09/09 02:28:20;;;;;;;;;;;;;;;8.38;76.13;100420.38;5062982;28;19913;-60
2022/09/09 02:30:46;;;;;;;;;;;;;;;8.38;76.30;100418.69;5062878;28;19913;-61
2022/09/09 02:33:14;;;;;;;;;;;;;;;8.36;76.50;100425.56;5045985;28;19951;-60
2022/09/09 02:35:40;;;;;;;;;;;;;;;8.35;76.33;100421.28;5043039;28;19916;-59
2022/09/09 02:38:07;;;;;;;;;;;;;;;8.34;76.09;100429.88;5050480;28;19908;-59
2022/09/09 02:40:33;;;;;;;;;;;;;;;8.33;76.22;100435.03;5059631;28;20145;-59
2022/09/09 02:42:59;;;;;;;;;;;;;;;8.28;76.90;100442.78;5042936;28;19946;-60
2022/09/09 02:45:31;;;;;;;;;;;;;;;8.29;76.03;100444.47;5061492;28;19916;-60
2022/09/09 02:48:14;;;;;;;;;;;;;;;8.16;76.16;100448.78;5063505;28;19927;-60
2022/09/09 02:50:45;;;;;;;;;;;;;;;8.10;76.61;100452.22;5084362;28;19915;-60
2022/09/09 02:53:21;;;;;;;;;;;;;;;8.04;77.52;100453.94;5084174;28;19917;-60
2022/09/09 02:55:46;;;;;;;;;;;;;;;7.94;76.68;100458.22;5117099;28;19913;-60
2022/09/09 02:58:16;;;;;;;;;;;;;;;7.97;76.98;100459.91;5083948;28;19942;-60
2022/09/09 03:00:43;;;;;;;;;;;;;;;7.90;77.57;100461.66;5084239;28;19998;-60
2022/09/09 03:03:09;;;;;;;;;;;;;;;7.84;77.37;100464.19;5084222;28;19939;-61
2022/09/09 03:05:35;;;;;;;;;;;;;;;7.82;78.53;100463.34;5095665;28;19923;-60
2022/09/09 03:08:01;;;;;;;;;;;;;;;7.82;78.11;100474.50;5096663;28;19991;-60
2022/09/09 03:10:26;;;;;;;;;;;;;;;7.71;78.97;100465.88;5065993;28;19913;-60
2022/09/09 03:12:52;;;;;;;;;;;;;;;7.68;78.45;100468.44;5067457;28;19988;-60
2022/09/09 03:15:17;;;;;;;;;;;;;;;7.66;78.11;100465.88;5081300;28;19908;-59
2022/09/09 03:17:42;;;;;;;;;;;;;;;7.64;79.11;100466.72;5083327;28;19914;-60
2022/09/09 03:20:08;;;;;;;;;;;;;;;7.64;78.16;100472.75;5071610;28;19946;-60
2022/09/09 03:22:34;;;;;;;;;;;;;;;7.60;78.53;100476.16;5083874;28;19939;-59
2022/09/09 03:24:59;;;;;;;;;;;;;;;7.52;79.02;100473.53;5084000;28;19915;-60
2022/09/09 03:27:25;;;;;;;;;;;;;;;7.45;79.52;100468.38;5083751;28;19932;-63
2022/09/09 03:29:51;;;;;;;;;;;;;;;7.35;79.51;100470.91;5083797;28;19955;-59
2022/09/09 03:32:17;;;;;;;;;;;;;;;7.35;80.12;100470.91;5092795;28;19908;-59
2022/09/09 03:34:43;;;;;;;;;;;;;;;7.36;78.93;100471.78;5099845;28;19908;-60
2022/09/09 03:37:08;;;;;;;;;;;;;;;7.29;79.33;100473.47;5083767;28;19979;-60
2022/09/09 03:39:33;;;;;;;;;;;;;;;7.35;79.03;100477.78;5083733;28;19969;-60
2022/09/09 03:41:59;;;;;;;;;;;;;;;7.31;80.38;100482.06;5083700;28;19922;-61
2022/09/09 03:44:24;;;;;;;;;;;;;;;7.36;79.94;100482.94;5083619;28;19947;-60
2022/09/09 03:46:50;;;;;;;;;;;;;;;7.36;79.96;100503.56;5083616;28;19908;-60
2022/09/09 03:49:16;;;;;;;;;;;;;;;7.43;80.19;100492.41;5083498;28;19908;-60
2022/09/09 03:51:42;;;;;;;;;;;;;;;7.41;80.48;100498.41;5083709;28;19920;-59
2022/09/09 03:54:09;;;;;;;;;;;;;;;7.50;79.48;100495.03;5083318;28;19908;-60
2022/09/09 03:56:36;;;;;;;;;;;;;;;7.54;80.00;100500.22;5083547;28;20189;-60
2022/09/09 03:59:01;;;;;;;;;;;;;;;7.50;79.97;100498.47;5115466;28;20066;-60
2022/09/09 04:01:27;;;;;;;;;;;;;;;7.58;79.20;100503.63;5083475;28;19912;-60
2022/09/09 04:03:52;;;;;;;;;;;;;;;7.64;79.80;100503.69;5083578;28;19908;-61
2022/09/09 04:06:19;;;;;;;;;;;;;;;7.68;79.46;100500.28;5083521;28;20194;-60
2022/09/09 04:08:45;;;;;;;;;;;;;;;7.75;79.26;100496.84;5090993;28;19979;-60
2022/09/09 04:11:10;;;;;;;;;;;;;;;7.77;79.18;100497.72;5083500;28;19912;-59
2022/09/09 04:13:38;;;;;;;;;;;;;;;7.82;78.45;100499.44;5083156;28;19908;-59
2022/09/09 04:16:04;;;;;;;;;;;;;;;7.83;78.61;100503.75;5083506;28;20155;-59
2022/09/09 04:18:29;;;;;;;;;;;;;;;7.84;79.03;100505.44;5082113;28;19908;-59
2022/09/09 04:20:58;;;;;;;;;;;;;;;7.91;77.80;100500.34;5096580;28;20187;-60
2022/09/09 04:23:25;;;;;;;;;;;;;;;7.95;78.10;100508.91;5069653;28;19916;-60
2022/09/09 04:25:51;;;;;;;;;;;;;;;7.94;78.24;100502.06;5071546;28;19919;-60
2022/09/09 04:28:17;;;;;;;;;;;;;;;7.97;78.00;100512.38;5085781;28;20096;-60
2022/09/09 04:30:43;;;;;;;;;;;;;;;7.93;79.00;100508.91;5107612;28;19997;-61
2022/09/09 04:33:09;;;;;;;;;;;;;;;7.94;78.77;100514.97;5091663;28;19908;-60
2022/09/09 04:35:35;;;;;;;;;;;;;;;7.69;78.48;100467.59;5086922;28;19912;-60
2022/09/09 04:38:02;;;;;;;;;;;;;;;8.04;77.80;100513.28;5093032;28;20187;-60
2022/09/09 04:40:29;;;;;;;;;;;;;;;8.06;78.58;100516.69;5105628;28;19907;-60
2022/09/09 04:42:54;;;;;;;;;;;;;;;8.03;78.42;100519.28;5086897;28;19948;-60
2022/09/09 04:45:20;;;;;;;;;;;;;;;8.00;78.23;100511.53;5086595;28;19909;-59
2022/09/09 04:47:45;;;;;;;;;;;;;;;8.03;78.68;100514.13;5086613;28;19913;-58
2022/09/09 04:50:12;;;;;;;;;;;;;;;8.04;79.55;100508.97;5086783;28;20211;-59
2022/09/09 04:52:37;;;;;;;;;;;;;;;8.13;78.26;100511.53;5085325;28;20140;-58
2022/09/09 04:55:03;;;;;;;;;;;;;;;8.17;78.44;100516.75;5102353;28;19908;-58
2022/09/09 04:57:31;;;;;;;;;;;;;;;8.22;78.09;100515.88;5085466;28;19915;-59
2022/09/09 04:59:58;;;;;;;;;;;;;;;8.27;76.11;100516.75;5094535;28;20126;-59
2022/09/09 05:02:23;;;;;;;;;;;;;;;8.36;76.35;100521.03;5085262;28;19957;-60
2022/09/09 05:04:49;;;;;;;;;;;;;;;8.38;75.09;100518.47;5082970;28;19912;-58
2022/09/09 05:07:15;;;;;;;;;;;;;;;8.48;75.17;100522.84;5086001;28;19931;-59
2022/09/09 05:09:40;;;;;;;;;;;;;;;8.58;74.99;100524.56;5085692;28;20209;-59
2022/09/09 05:12:06;;;;;;;;;;;;;;;8.69;74.40;100526.28;5086107;28;19912;-59
2022/09/09 05:14:31;;;;;;;;;;;;;;;8.73;73.91;100525.41;5082676;28;19920;-59
2022/09/09 05:16:57;;;;;;;;;;;;;;;8.78;73.80;100529.72;5080683;28;19908;-60
2022/09/09 05:19:23;;;;;;;;;;;;;;;8.86;73.00;100541.75;5085953;28;19916;-60
2022/09/09 05:21:49;;;;;;;;;;;;;;;8.91;72.31;100538.31;5085753;28;19908;-60
2022/09/09 05:24:15;;;;;;;;;;;;;;;8.95;72.47;100540.03;5086175;28;20201;-59
2022/09/09 05:26:41;;;;;;;;;;;;;;;9.03;71.97;100546.91;5084686;28;19980;-59
2022/09/09 05:29:08;;;;;;;;;;;;;;;9.06;71.21;100544.31;5081997;28;19916;-60
2022/09/09 05:31:33;;;;;;;;;;;;;;;9.17;70.75;100540.00;5067804;28;19913;-60
2022/09/09 05:33:59;;;;;;;;;;;;;;;9.26;71.64;100544.28;5101568;28;19951;-59
2022/09/09 05:36:24;;;;;;;;;;;;;;;9.25;70.34;100545.13;5117292;28;19908;-60
2022/09/09 05:38:50;;;;;;;;;;;;;;;9.27;70.16;100546.03;5085679;28;19983;-59
2022/09/09 05:41:16;;;;;;;;;;;;;;;9.37;69.37;100552.88;5085549;28;20026;-59
2022/09/09 05:43:44;;;;;;;;;;;;;;;9.46;69.21;100546.81;5085250;28;19908;-59
2022/09/09 05:46:16;;;;;;;;;;;;;;;9.54;68.70;100552.00;5085552;28;19916;-59
2022/09/09 05:48:43;;;;;;;;;;;;;;;9.62;68.78;100550.22;5103811;28;19909;-59
2022/09/09 05:51:15;;;;;;;;;;;;;;;9.68;68.03;100547.63;5078839;28;19983;-59
2022/09/09 05:53:40;;;;;;;;;;;;;;;9.75;68.26;100544.16;5083550;28;19908;-58
2022/09/09 05:56:09;;;;;;;;;;;;;;;9.79;68.23;100551.03;5084536;28;19908;-60
2022/09/09 05:58:35;;;;;;;;;;;;;;;9.88;68.31;100551.88;5084843;28;20303;-59
2022/09/09 06:01:10;;;;;;;;;;;;;;;9.95;67.57;100550.97;5085466;28;19916;-59
2022/09/09 06:03:37;;;;;;;;;;;;;;;9.98;67.68;100541.44;5081819;28;20174;-59
2022/09/09 06:06:07;;;;;;;;;;;;;;;10.01;67.74;100545.75;5083259;28;20155;-59
2022/09/09 06:08:33;;;;;;;;;;;;;;;9.99;65.11;100552.66;5079601;28;19917;-60
2022/09/09 06:11:06;;;;;;;;;;;;;;;10.12;66.68;100553.47;5080770;28;20021;-59
2022/09/09 06:13:31;;;;;;;;;;;;;;;10.18;64.00;100553.44;5083082;28;19912;-59
2022/09/09 06:15:58;;;;;;;;;;;;;;;10.26;63.23;100558.53;5083970;28;19954;-59
2022/09/09 06:18:23;;;;;;;;;;;;;;;10.33;63.32;100561.09;5086783;28;19908;-59
2022/09/09 06:20:56;;;;;;;;;;;;;;;10.31;62.27;100564.56;5084630;28;20272;-59
2022/09/09 06:23:21;;;;;;;;;;;;;;;10.42;63.38;100567.97;5100628;28;20201;-59
2022/09/09 06:25:48;;;;;;;;;;;;;;;10.45;61.30;100573.13;5082489;28;19921;-60
2022/09/09 06:28:14;;;;;;;;;;;;;;;10.52;62.03;100580.00;5084867;28;19912;-60
2022/09/09 06:30:41;;;;;;;;;;;;;;;10.63;60.81;100573.88;5077066;28;19912;-60
2022/09/09 06:33:06;;;;;;;;;;;;;;;10.71;60.18;100578.13;5082695;28;19912;-59
2022/09/09 06:35:31;;;;;;;;;;;;;;;10.64;61.02;100579.03;5084657;28;19971;-60
2022/09/09 06:37:58;;;;;;;;;;;;;;;10.71;59.87;100582.44;5079432;28;19997;-59
2022/09/09 06:40:24;;;;;;;;;;;;;;;10.84;60.26;100581.47;5062604;28;19909;-59
2022/09/09 06:42:49;;;;;;;;;;;;;;;10.91;60.56;100591.81;5082732;28;19909;-60
2022/09/09 06:45:15;;;;;;;;;;;;;;;10.97;59.28;100587.41;5082463;28;20017;-60
2022/09/09 06:47:40;;;;;;;;;;;;;;;11.07;58.61;100585.59;5093538;28;19912;-60
2022/09/09 06:50:07;;;;;;;;;;;;;;;11.11;58.51;100591.63;5104283;28;19939;-60
2022/09/09 06:52:33;;;;;;;;;;;;;;;11.19;59.08;100590.69;5104446;28;19920;-59
2022/09/09 06:54:59;;;;;;;;;;;;;;;11.28;59.56;100591.47;5098275;28;19908;-60
2022/09/09 06:57:24;;;;;;;;;;;;;;;11.41;58.49;100598.25;5080122;28;19919;-60
2022/09/09 06:59:50;;;;;;;;;;;;;;;11.49;57.08;100600.78;5082179;28;19912;-59
2022/09/09 07:02:15;;;;;;;;;;;;;;;11.55;57.07;100603.31;5081514;28;19942;-60
2022/09/09 07:04:41;;;;;;;;;;;;;;;11.55;57.70;100604.16;5081447;28;19912;-61
2022/09/09 07:07:07;;;;;;;;;;;;;;;11.68;56.84;100601.44;5082607;28;19912;-61
2022/09/09 07:09:33;;;;;;;;;;;;;;;11.58;55.95;100598.94;5082611;28;19995;-60
2022/09/09 07:11:59;;;;;;;;;;;;;;;11.82;56.53;100599.53;5082559;28;19943;-59
2022/09/09 07:14:25;;;;;;;;;;;;;;;11.81;53.68;100603.00;5082619;28;19917;-60
2022/09/09 07:16:50;;;;;;;;;;;;;;;11.97;53.96;100605.47;5082633;28;20166;-60
2022/09/09 07:19:16;;;;;;;;;;;;;;;12.03;54.74;100608.84;5082040;28;19935;-59
2022/09/09 07:21:42;;;;;;;;;;;;;;;12.12;53.88;100610.47;5079210;28;19919;-59
2022/09/09 07:24:09;;;;;;;;;;;;;;;12.26;53.56;100613.72;5081726;28;19913;-59
2022/09/09 07:26:35;;;;;;;;;;;;;;;12.09;53.34;100613.09;5082683;28;19935;-59
2022/09/09 07:29:01;;;;;;;;;;;;;;;12.00;54.85;100614.09;5082470;28;20114;-59
2022/09/09 07:31:31;;;;;;;;;;;;;;;11.89;54.81;100610.72;5082170;28;19912;-59
2022/09/09 07:33:57;;;;;;;;;;;;;;;11.91;55.62;100614.16;5081114;28;20086;-59
2022/09/09 07:36:27;;;;;;;;;;;;;;;12.00;56.64;100618.41;5083133;28;19913;-59
2022/09/09 07:38:56;;;;;;;;;;;;;;;11.98;54.27;100622.75;5084127;28;19935;-59
2022/09/09 07:41:24;;;;;;;;;;;;;;;12.05;52.52;100624.41;5082670;28;19944;-59
2022/09/09 07:43:50;;;;;;;;;;;;;;;12.06;53.52;100620.94;5079204;28;19918;-58
2022/09/09 07:46:17;;;;;;;;;;;;;;;11.86;53.48;100634.97;5080260;28;20158;-58
2022/09/09 07:48:46;;;;;;;;;;;;;;;11.79;53.28;100635.91;5077529;28;19924;-58
2022/09/09 07:51:16;;;;;;;;;;;;;;;11.69;52.64;100639.50;5082368;28;19967;-59
2022/09/09 07:53:42;;;;;;;;;;;;;;;11.80;53.67;100642.84;5079993;28;19912;-59
2022/09/09 07:56:09;;;;;;;;;;;;;;;11.96;55.11;100637.50;5082652;28;19963;-59
2022/09/09 08:00:23;;;;;;;2.90;0.82;;;;;;;12.16;52.21;100634.66;5098453;27;1440897;-60
2022/09/09 08:02:49;;;;;;;0.70;0.68;;;;;;;11.97;51.92;100640.09;5121036;28;20023;-60
2022/09/09 08:05:16;;;;;;;1.67;0.93;;;;;;;12.09;52.43;100642.50;5127732;28;20090;-60
2022/09/09 08:07:41;;;;;;;1.50;1.08;;;;;;;12.19;52.77;100645.00;5138972;27;20023;-60
2022/09/09 08:10:07;;;;;;;1.38;0.90;;;;;;;11.91;51.50;100640.97;5120009;28;20073;-60
2022/09/09 08:12:32;;;;;;;1.15;0.80;;;;;;;12.02;51.88;100640.88;5136993;28;20197;-60
2022/09/09 08:14:58;;;;;;;0.82;0.82;;;;;;;12.01;53.13;100638.28;5130066;27;20031;-60
2022/09/09 08:17:24;;;;;;;1.17;1.00;;;;;;;12.07;53.95;100646.00;5128388;28;20058;-60
2022/09/09 08:19:50;;;;;;;2.58;0.90;;;;;;;12.09;54.22;100639.06;5138014;27;20047;-59
2022/09/09 08:22:15;;;;;;;1.52;0.93;;;;;;;11.73;52.30;100641.19;5126104;28;20077;-60
2022/09/09 08:24:41;;;;;;;1.85;1.10;;;;;;;11.94;54.38;100652.22;5139502;28;20031;-59
2022/09/09 08:27:07;;;;;;;1.00;0.90;;;;;;;11.96;54.97;100653.94;5141105;27;20064;-60
2022/09/09 08:29:32;;;;;;;2.08;1.10;;;;;;;12.02;54.60;100640.03;5140990;27;20308;-60
2022/09/09 08:31:59;;;;;;;1.30;0.95;;;;;;;12.13;54.99;100648.53;5136810;27;20335;-60
2022/09/09 08:34:26;;;;;;;3.97;1.25;;;;;;;11.96;53.38;100647.91;5120536;28;20085;-60
2022/09/09 08:36:53;;;;;;;1.30;1.20;;;;;;;12.16;52.70;100640.72;5120147;28;20024;-60
2022/09/09 08:39:21;;;;;;;1.98;1.13;;;;;;;12.29;53.35;100641.41;5120327;28;20024;-60
2022/09/09 08:41:55;;;;;;;1.30;0.90;;;;;;;12.41;54.01;100653.38;5120170;28;20032;-60
2022/09/09 08:44:42;;;;;;;1.10;1.00;;;;;;;12.14;52.97;100655.47;5120620;28;20027;-59
2022/09/09 08:47:29;;;;;;;1.33;0.80;;;;;;;12.21;53.29;100657.09;5125604;28;20027;-59
2022/09/09 08:50:16;;;;;;;2.05;0.90;;;;;;;12.00;53.88;100657.34;5132140;28;20050;-59
2022/09/09 08:52:55;;;;;;;1.60;1.50;;;;;;;12.08;54.16;100652.91;5120030;28;20020;-59
2022/09/09 08:55:45;;;;;;;1.75;1.15;;;;;;;12.18;55.52;100656.28;5128895;28;20019;-59
2022/09/09 08:58:21;;;;;;;2.95;0.90;;;;;;;12.17;55.20;100662.34;5120199;28;20377;-59
2022/09/09 09:03:41;;;;;;;2.15;1.90;;;;;;;12.87;54.10;100657.03;4972857;28;20655;-61
2022/09/09 09:06:44;;;;;;;0.82;0.82;;;;;;;12.77;52.32;100609.56;4831672;28;20402;-60
2022/09/09 09:09:40;;;;;;;0.60;0.60;;;;;;;13.45;49.00;100655.28;4964424;28;20060;-60
2022/09/09 09:12:17;;;;;;;1.92;1.10;;;;;;;13.16;50.08;100664.41;5036035;28;20262;-59
2022/09/09 09:14:45;;;;;;;1.70;1.00;;;;;;;12.91;50.48;100654.41;5038975;28;20063;-61
2022/09/09 09:17:18;;;;;;;2.80;1.38;;;;;;;12.91;49.17;100671.72;5047284;28;20037;-59
2022/09/09 09:19:46;;;;;;;1.00;0.90;;;;;;;13.38;49.38;100666.69;5053545;28;20041;-61
2022/09/09 09:22:22;;;;;;;3.50;0.90;;;;;;;13.68;48.90;100654.00;5040232;28;20021;-60
2022/09/09 09:25:06;;;;;;;0.70;0.70;;;;;;;13.55;48.42;100666.38;5053826;28;20024;-58
2022/09/09 09:27:35;;;;;;;1.10;1.00;;;;;;;13.06;49.20;100616.03;5056187;28;20230;-60
2022/09/09 09:30:12;;;;;;;1.05;0.80;;;;;;;12.84;51.05;100618.09;5048028;28;20029;-60
2022/09/09 09:32:44;;;;;;;2.55;1.30;;;;;;;12.95;52.36;100666.47;5064622;28;20031;-60
2022/09/09 09:35:13;;;;;;;3.42;1.33;;;;;;;12.85;52.94;100664.88;5070378;28;20245;-60
2022/09/09 09:37:43;;;;;;;1.25;1.15;;;;;;;12.53;52.56;100616.00;5040856;28;20037;-60
2022/09/09 09:40:12;;;;;;;2.60;1.08;;;;;;;12.79;53.11;100675.38;5060416;28;20029;-61
2022/09/09 09:42:47;;;;;;;2.35;1.05;;;;;;;12.84;53.44;100657.09;5077052;28;20051;-61
2022/09/09 09:45:41;;;;;;;1.05;0.73;;;;;;;12.71;50.35;100648.63;5052719;28;20434;-60
2022/09/09 09:48:14;;;;;;;2.03;1.08;;;;;;;12.78;49.80;100650.25;5041767;28;20052;-59
2022/09/09 09:50:56;;;;;;;0.95;0.80;;;;;;;12.74;51.14;100652.06;5050838;28;20029;-60
2022/09/09 09:53:27;;;;;;;1.60;0.85;;;;;;;12.45;51.35;100604.84;5039808;28;20029;-59
2022/09/09 09:56:11;;;;;;;2.00;0.80;;;;;;;12.41;50.99;100604.00;5052693;28;20202;-60
2022/09/09 09:58:46;;;;;;;0.70;0.70;;;;;;;12.69;50.53;100653.00;5059208;28;20345;-59
2022/09/09 10:01:27;;;;;;;1.15;0.60;;;;;;;12.57;50.36;100647.09;5049183;28;20167;-59
2022/09/09 10:04:13;;;;;;;1.42;0.80;;;;;;;12.71;50.99;100659.91;5059591;28;20029;-60
2022/09/09 10:06:39;;;;;;;2.33;1.00;;;;;;;12.66;51.75;100650.44;5058944;28;20088;-59
2022/09/09 10:09:44;;;;;;;2.72;1.23;;;;;;;12.84;51.06;100649.31;5059069;28;20029;-60
2022/09/09 10:12:37;;;;;;;1.88;0.85;;;;;;;12.82;53.07;100657.13;4993682;28;20038;-59
2022/09/09 10:15:20;;;;;;;6.95;1.35;;;;;;;12.93;52.89;100652.63;5005577;28;20037;-60
2022/09/09 10:18:17;;;;;;;0.95;0.85;;;;;;;13.02;51.45;100651.63;5024462;28;20041;-59
2022/09/09 10:20:50;;;;;;;0.90;0.90;;;;;;;13.12;50.31;100662.72;5024118;28;20026;-59
2022/09/09 10:23:53;;;;;;;2.40;0.95;;;;;;;13.41;48.85;100661.41;5015271;28;20048;-59
2022/09/09 10:26:43;;;;;;;0.77;0.77;;;;;;;13.19;48.73;100666.94;5030179;28;20029;-59
2022/09/09 10:29:37;;;;;;;0.82;0.65;;;;;;;12.99;49.74;100667.28;5039682;28;20137;-60
2022/09/09 10:32:41;;;;;;;3.53;0.90;;;;;;;13.16;49.18;100664.41;5024064;28;20041;-60
2022/09/09 10:35:39;;;;;;;1.65;0.90;;;;;;;12.98;50.46;100662.94;5012751;28;20029;-59
2022/09/09 10:38:17;;;;;;;2.78;0.90;;;;;;;13.01;51.75;100664.66;5019873;28;20030;-62
2022/09/09 10:40:44;;;;;;;1.42;0.77;;;;;;;13.01;51.36;100664.66;5005663;28;20034;-60
2022/09/09 10:43:18;;;;;;;2.75;2.50;;;;;;;13.12;51.04;100665.34;5056895;28;20032;-60
2022/09/09 10:46:03;;;;;;;1.58;0.80;;;;;;;12.78;48.59;100661.53;5065465;28;20037;-60
2022/09/09 10:48:55;;;;;;;3.00;0.60;;;;;;;12.86;48.97;100650.16;5034892;28;20076;-59
2022/09/09 10:51:59;;;;;;;0.98;0.70;;;;;;;13.10;49.77;100664.50;5053958;28;20028;-59
2022/09/09 10:54:51;;;;;;;1.33;0.80;;;;;;;12.99;48.68;100662.06;5056007;28;20096;-60
2022/09/09 10:57:52;;;;;;;1.88;0.98;;;;;;;12.91;48.21;100620.59;5058916;28;20352;-59
2022/09/09 11:03:04;;;;;;;1.08;0.80;;;;;;;13.45;49.28;100665.69;5044631;28;20104;-59
2022/09/09 11:05:42;;;;;;;1.02;0.95;;;;;;;13.20;50.42;100611.44;5018224;28;20375;-60
2022/09/09 11:08:21;;;;;;;1.13;0.73;;;;;;;13.49;49.33;100663.91;5008940;28;20041;-59
2022/09/09 11:10:55;;;;;;;1.00;0.90;;;;;;;13.47;50.33;100671.75;5025495;28;20044;-60
2022/09/09 11:13:51;;;;;;;2.10;0.80;;;;;;;13.32;47.84;100667.59;5023444;28;20040;-60
2022/09/09 11:16:29;;;;;;;1.67;1.02;;;;;;;12.61;49.26;100621.91;5039642;28;20049;-59
2022/09/09 11:19:05;;;;;;;1.10;0.60;;;;;;;12.95;51.00;100666.47;5048157;28;20045;-60
2022/09/09 11:21:49;;;;;;;3.05;0.70;;;;;;;12.79;50.19;100662.38;5038019;28;20091;-60
2022/09/09 11:24:41;;;;;;;1.10;0.77;;;;;;;12.64;50.90;100628.81;5037872;28;20057;-60
2022/09/09 11:27:31;;;;;;;2.83;1.10;;;;;;;12.66;50.09;100625.31;5020844;28;20086;-60
2022/09/09 11:30:20;;;;;;;1.88;1.23;;;;;;;13.06;50.41;100673.25;5007014;28;20050;-59
2022/09/09 11:32:45;;;;;;;0.73;0.70;;;;;;;12.97;47.84;100669.06;5035622;28;20034;-58
2022/09/09 11:35:23;;;;;;;1.10;1.10;;;;;;;13.00;47.29;100674.19;5024841;28;20076;-59
2022/09/09 11:38:27;;;;;;;0.80;0.80;;;;;;;12.92;48.26;100668.25;5025552;28;20047;-59
2022/09/09 11:41:02;;;;;;;1.70;0.77;;;;;;;12.75;47.45;100665.91;5042701;28;20029;-59
2022/09/09 11:43:32;;;;;;;1.55;0.75;;;;;;;12.51;47.24;100631.59;5040082;28;20060;-58
2022/09/09 11:46:02;;;;;;;1.58;0.82;;;;;;;12.86;49.85;100682.19;5043161;28;20032;-58
2022/09/09 11:48:37;;;;;;;1.98;0.90;;;;;;;12.72;49.75;100632.16;5058788;28;20127;-60
2022/09/09 11:51:12;;;;;;;5.18;1.00;;;;;;;12.94;49.69;100672.56;5052899;28;20033;-60
2022/09/09 11:54:29;;;;;;;1.77;1.00;;;;;;;13.03;48.63;100668.94;5002268;28;20041;-60
2022/09/09 11:56:55;;;;;;;3.00;1.23;;;;;;;12.88;48.35;100669.19;5032081;28;20045;-60
2022/09/09 11:59:31;;;;;;;1.00;0.90;;;;;;;12.99;47.98;100666.44;5029509;28;20018;-60
2022/09/09 12:01:59;;;;;;;2.00;1.10;;;;;;;13.05;48.69;100672.38;5041692;28;20056;-61
2022/09/09 12:04:25;;;;;;;2.97;0.90;;;;;;;13.09;48.34;100666.22;5043934;28;20086;-62
2022/09/09 12:06:58;;;;;;;1.55;1.10;;;;;;;12.98;47.15;100677.69;5061704;28;20060;-60
2022/09/09 12:09:29;;;;;;;1.33;0.70;;;;;;;13.06;46.49;100666.28;5050035;28;20045;-60
2022/09/09 12:12:13;;;;;;;0.70;0.70;;;;;;;12.99;46.84;100666.44;5053837;28;20033;-60
2022/09/09 12:14:41;;;;;;;2.78;0.90;;;;;;;13.02;47.39;100664.63;5048181;28;20034;-61
2022/09/09 12:17:16;;;;;;;1.38;0.80;;;;;;;13.11;46.21;100663.59;5022705;28;20041;-61
2022/09/09 12:19:42;;;;;;;2.70;1.20;;;;;;;13.01;46.21;100651.63;5023908;28;20384;-60
2022/09/09 12:22:17;;;;;;;1.92;0.73;;;;;;;12.96;44.84;100646.53;5025419;28;20096;-60
2022/09/09 12:25:07;;;;;;;1.58;0.93;;;;;;;13.10;45.83;100654.97;5027338;28;20125;-61
2022/09/09 12:27:45;;;;;;;0.90;0.90;;;;;;;13.05;45.97;100669.75;5031858;28;20021;-60
2022/09/09 12:30:15;;;;;;;0.82;0.82;;;;;;;13.20;45.54;100650.47;5023581;28;20292;-60
2022/09/09 12:32:41;;;;;;;1.15;0.82;;;;;;;13.11;45.49;100663.59;5023624;28;20030;-60
2022/09/09 12:35:30;;;;;;;0.95;0.80;;;;;;;12.83;45.69;100606.00;5023520;28;20225;-60
2022/09/09 12:38:00;;;;;;;1.02;1.00;;;;;;;13.12;47.49;100657.53;5042777;28;20195;-60
2022/09/09 12:40:34;;;;;;;1.58;0.85;;;;;;;12.91;48.00;100619.72;5043513;28;20029;-60
2022/09/09 12:43:01;;;;;;;1.17;1.08;;;;;;;13.12;47.84;100661.00;5062079;28;20044;-60